Terminal Aerodrome Forecast
Issued by NWS

Home | Current Version | Previous Version | Text Only | Print | Product List | Glossary On
Versions: 1 2 3 4 5 6 7 8 9 10 11 12 13 14 15 16 17 18
000
FTUS42 KTAE 282320
TAFABY
TAF
KABY 282320Z 2900/2924 30006KT P6SM SCT070 BKN100
     FM290300 VRB03KT P6SM BKN070
     FM291400 08006KT P6SM BKN070
     FM291800 14006KT P6SM SCT070=

USA.gov is the U.S. government's official web portal to all federal, state and local government web resources and services.